Carson, North Dakota
Current Conditions -  °F | °C
As of 3:55 PM on Wednesday 22 Oct 2014 (Local Time) from KD57 Reporting Station
Clear Clear  
Wind Chill: 64°   Ceiling: Unl
Heat Index: 64°   Visibility: 10mi
Dew Point: 36°   Wind: 18mph
Humidity: 34%   Direction: 270°W
Pressure: 29.85"   Gusts: 29mph
Location:  46.42°N, 101.56°W
Report Text: KD57 222155Z AUTO 27016G25KT 10SM CLR 18/02 A2985 RMK AO2 TSNO
Loading
Personal Weather Stations






























Interactive Weather Map
Tropical Storm Tracking
New forecast layout! Learn more

10-Day Weather Forecast

Advertisements
Track Severe Weather on mobile